NCAR-RAP Real-Time Weather Data

Output produced by METARs form (06 May 2021  16:29 UTC)
found at http://weather.rap.ucar.edu/surface/
 
KGPI 061555Z 36007KT 10SM CLR 14/01 A3009 RMK AO2 SLP191 T01390011
KGPI 061455Z 35009KT 10SM CLR 12/01 A3011 RMK AO2 SLP195 T01220006 56003
KGPI 061355Z 01006KT 10SM CLR 10/01 A3011 RMK AO2 SLP195 T01000006
KGPI 061255Z AUTO 36005KT 10SM CLR 07/01 A3011 RMK AO2 SLP196 T00720006
KGPI 061155Z AUTO 27005KT 10SM CLR 04/M01 A3012 RMK AO2 SLP202 T00391006 10083 20028 58005
KGPI 061055Z AUTO 00000KT 10SM CLR 05/M01 A3013 RMK AO2 SLP204 T00501006
KGPI 060955Z AUTO 31004KT 10SM CLR 03/M01 A3014 RMK AO2 SLP208 T00331006
KGPI 060855Z AUTO 28004KT 10SM CLR 05/00 A3014 RMK AO2 SLP208 T00500000 58004
KGPI 060755Z AUTO 31003KT 10SM CLR 06/01 A3015 RMK AO2 SLP213 T00560006
KGPI 060655Z AUTO 20003KT 10SM CLR 07/01 A3015 RMK AO2 SLP212 T00670011 401941011
KGPI 060555Z VRB03KT 10SM CLR 08/03 A3015 RMK AO2 SLP212 T00780028 10194 20078 58002
KGPI 060455Z 00000KT 10SM CLR 10/03 A3017 RMK AO2 SLP216 T01000033
KGPI 060355Z 00000KT 10SM CLR 10/03 A3016 RMK AO2 SLP218 T01000028
KGPI 060255Z 00000KT 10SM CLR 14/00 A3016 RMK AO2 SLP212 T01390000 55000